sensor_id;sensor_type;location;lat;lon;timestamp;P1;durP1;ratioP1;P2;durP2;ratioP2
82632;SDS011;72302;51.444;3.582;2024-01-25T00:02:07;15.27;;;2.77;;
82632;SDS011;72302;51.444;3.582;2024-01-25T00:04:33;29.23;;;5.27;;
82632;SDS011;72302;51.444;3.582;2024-01-25T00:06:58;26.07;;;5.70;;
82632;SDS011;72302;51.444;3.582;2024-01-25T00:09:23;28.43;;;5.90;;
82632;SDS011;72302;51.444;3.582;2024-01-25T00:11:48;31.67;;;6.33;;
82632;SDS011;72302;51.444;3.582;2024-01-25T00:14:13;30.50;;;6.07;;
82632;SDS011;72302;51.444;3.582;2024-01-25T00:16:42;24.07;;;3.57;;
82632;SDS011;72302;51.444;3.582;2024-01-25T00:19:07;31.88;;;4.15;;
82632;SDS011;72302;51.444;3.582;2024-01-25T00:21:32;27.43;;;4.60;;
82632;SDS011;72302;51.444;3.582;2024-01-25T00:23:57;21.45;;;3.92;;
82632;SDS011;72302;51.444;3.582;2024-01-25T00:26:22;26.37;;;6.40;;
82632;SDS011;72302;51.444;3.582;2024-01-25T00:28:48;23.80;;;5.33;;
82632;SDS011;72302;51.444;3.582;2024-01-25T00:31:13;27.17;;;5.53;;
82632;SDS011;72302;51.444;3.582;2024-01-25T00:33:38;29.55;;;5.07;;
82632;SDS011;72302;51.444;3.582;2024-01-25T00:36:03;29.58;;;5.28;;
82632;SDS011;72302;51.444;3.582;2024-01-25T00:38:29;29.70;;;5.53;;
82632;SDS011;72302;51.444;3.582;2024-01-25T00:40:54;28.83;;;5.47;;
82632;SDS011;72302;51.444;3.582;2024-01-25T00:43:19;24.80;;;5.18;;
82632;SDS011;72302;51.444;3.582;2024-01-25T00:45:45;36.30;;;5.50;;
82632;SDS011;72302;51.444;3.582;2024-01-25T00:48:10;29.20;;;6.55;;
82632;SDS011;72302;51.444;3.582;2024-01-25T00:50:37;23.02;;;4.45;;
82632;SDS011;72302;51.444;3.582;2024-01-25T00:53:03;22.45;;;4.68;;
82632;SDS011;72302;51.444;3.582;2024-01-25T00:55:28;20.90;;;4.35;;
82632;SDS011;72302;51.444;3.582;2024-01-25T00:57:53;30.48;;;8.18;;
82632;SDS011;72302;51.444;3.582;2024-01-25T01:00:19;28.45;;;6.20;;
82632;SDS011;72302;51.444;3.582;2024-01-25T01:02:45;21.08;;;3.50;;
82632;SDS011;72302;51.444;3.582;2024-01-25T01:05:11;20.90;;;4.20;;
82632;SDS011;72302;51.444;3.582;2024-01-25T01:07:36;22.02;;;4.75;;
82632;SDS011;72302;51.444;3.582;2024-01-25T01:10:02;16.60;;;3.13;;
82632;SDS011;72302;51.444;3.582;2024-01-25T01:12:28;15.50;;;3.72;;
82632;SDS011;72302;51.444;3.582;2024-01-25T01:14:53;23.33;;;4.82;;
82632;SDS011;72302;51.444;3.582;2024-01-25T01:17:18;29.30;;;5.57;;
82632;SDS011;72302;51.444;3.582;2024-01-25T01:19:43;25.70;;;4.53;;
82632;SDS011;72302;51.444;3.582;2024-01-25T01:22:09;28.15;;;4.80;;
82632;SDS011;72302;51.444;3.582;2024-01-25T01:24:34;17.77;;;3.70;;
82632;SDS011;72302;51.444;3.582;2024-01-25T01:26:59;26.27;;;4.17;;
82632;SDS011;72302;51.444;3.582;2024-01-25T01:29:24;26.17;;;5.47;;
82632;SDS011;72302;51.444;3.582;2024-01-25T01:31:49;24.80;;;4.83;;
82632;SDS011;72302;51.444;3.582;2024-01-25T01:34:14;16.80;;;6.10;;
82632;SDS011;72302;51.444;3.582;2024-01-25T01:36:42;24.08;;;4.45;;
82632;SDS011;72302;51.444;3.582;2024-01-25T01:39:07;20.80;;;4.10;;
82632;SDS011;72302;51.444;3.582;2024-01-25T01:41:32;16.30;;;3.03;;
82632;SDS011;72302;51.444;3.582;2024-01-25T01:43:57;12.50;;;2.43;;
82632;SDS011;72302;51.444;3.582;2024-01-25T01:46:29;23.10;;;3.30;;
82632;SDS011;72302;51.444;3.582;2024-01-25T01:48:56;12.88;;;2.58;;
82632;SDS011;72302;51.444;3.582;2024-01-25T01:51:21;20.37;;;4.07;;
82632;SDS011;72302;51.444;3.582;2024-01-25T01:53:46;23.63;;;3.77;;
82632;SDS011;72302;51.444;3.582;2024-01-25T01:56:12;14.60;;;2.40;;
82632;SDS011;72302;51.444;3.582;2024-01-25T01:58:37;10.68;;;0.93;;
82632;SDS011;72302;51.444;3.582;2024-01-25T02:01:03;18.08;;;3.33;;
82632;SDS011;72302;51.444;3.582;2024-01-25T02:03:29;11.35;;;2.42;;
82632;SDS011;72302;51.444;3.582;2024-01-25T02:05:54;16.70;;;3.67;;
82632;SDS011;72302;51.444;3.582;2024-01-25T02:08:19;18.92;;;3.90;;
82632;SDS011;72302;51.444;3.582;2024-01-25T02:10:44;21.13;;;3.65;;
82632;SDS011;72302;51.444;3.582;2024-01-25T02:13:10;16.00;;;3.23;;
82632;SDS011;72302;51.444;3.582;2024-01-25T02:15:35;15.47;;;3.20;;
82632;SDS011;72302;51.444;3.582;2024-01-25T02:18:00;18.67;;;3.83;;
82632;SDS011;72302;51.444;3.582;2024-01-25T02:20:26;12.77;;;3.25;;
82632;SDS011;72302;51.444;3.582;2024-01-25T02:22:51;21.17;;;4.23;;
82632;SDS011;72302;51.444;3.582;2024-01-25T02:25:16;22.70;;;5.00;;
82632;SDS011;72302;51.444;3.582;2024-01-25T02:27:41;15.23;;;4.20;;
82632;SDS011;72302;51.444;3.582;2024-01-25T02:30:06;6.93;;;2.30;;
82632;SDS011;72302;51.444;3.582;2024-01-25T02:32:32;17.63;;;3.85;;
82632;SDS011;72302;51.444;3.582;2024-01-25T02:34:57;19.63;;;4.75;;
82632;SDS011;72302;51.444;3.582;2024-01-25T02:37:23;9.93;;;2.67;;
82632;SDS011;72302;51.444;3.582;2024-01-25T02:39:48;10.63;;;2.97;;
82632;SDS011;72302;51.444;3.582;2024-01-25T02:42:13;16.87;;;4.43;;
82632;SDS011;72302;51.444;3.582;2024-01-25T02:44:39;21.48;;;5.65;;
82632;SDS011;72302;51.444;3.582;2024-01-25T02:47:04;23.43;;;4.43;;
82632;SDS011;72302;51.444;3.582;2024-01-25T02:49:29;14.60;;;3.70;;
82632;SDS011;72302;51.444;3.582;2024-01-25T02:51:54;18.17;;;3.77;;
82632;SDS011;72302;51.444;3.582;2024-01-25T02:54:19;16.30;;;4.43;;
82632;SDS011;72302;51.444;3.582;2024-01-25T02:56:45;6.40;;;1.73;;
82632;SDS011;72302;51.444;3.582;2024-01-25T02:59:10;14.05;;;2.83;;
82632;SDS011;72302;51.444;3.582;2024-01-25T03:01:40;9.10;;;1.93;;
82632;SDS011;72302;51.444;3.582;2024-01-25T03:04:05;8.70;;;2.78;;
82632;SDS011;72302;51.444;3.582;2024-01-25T03:06:30;6.28;;;2.13;;
82632;SDS011;72302;51.444;3.582;2024-01-25T03:08:55;10.33;;;2.53;;
82632;SDS011;72302;51.444;3.582;2024-01-25T03:11:21;13.20;;;3.43;;
82632;SDS011;72302;51.444;3.582;2024-01-25T03:13:46;17.03;;;4.00;;
82632;SDS011;72302;51.444;3.582;2024-01-25T03:16:11;16.80;;;3.23;;
82632;SDS011;72302;51.444;3.582;2024-01-25T03:18:36;12.25;;;2.50;;
82632;SDS011;72302;51.444;3.582;2024-01-25T03:21:01;6.83;;;2.77;;
82632;SDS011;72302;51.444;3.582;2024-01-25T03:23:27;9.97;;;2.03;;
82632;SDS011;72302;51.444;3.582;2024-01-25T03:25:52;13.27;;;2.50;;
82632;SDS011;72302;51.444;3.582;2024-01-25T03:28:17;14.13;;;2.17;;
82632;SDS011;72302;51.444;3.582;2024-01-25T03:30:43;17.10;;;3.85;;
82632;SDS011;72302;51.444;3.582;2024-01-25T03:33:08;15.53;;;3.03;;
82632;SDS011;72302;51.444;3.582;2024-01-25T03:35:34;18.43;;;4.77;;
82632;SDS011;72302;51.444;3.582;2024-01-25T03:37:59;25.17;;;5.85;;
82632;SDS011;72302;51.444;3.582;2024-01-25T03:40:24;13.27;;;3.20;;
82632;SDS011;72302;51.444;3.582;2024-01-25T03:42:49;13.35;;;2.83;;
82632;SDS011;72302;51.444;3.582;2024-01-25T03:45:15;19.40;;;4.10;;
82632;SDS011;72302;51.444;3.582;2024-01-25T03:47:40;15.97;;;2.53;;
82632;SDS011;72302;51.444;3.582;2024-01-25T03:50:05;8.40;;;0.93;;
82632;SDS011;72302;51.444;3.582;2024-01-25T03:52:31;6.90;;;1.83;;
82632;SDS011;72302;51.444;3.582;2024-01-25T03:54:56;8.85;;;2.05;;
82632;SDS011;72302;51.444;3.582;2024-01-25T03:57:22;20.77;;;4.17;;
82632;SDS011;72302;51.444;3.582;2024-01-25T03:59:47;18.40;;;4.43;;
82632;SDS011;72302;51.444;3.582;2024-01-25T04:02:12;18.17;;;3.43;;
82632;SDS011;72302;51.444;3.582;2024-01-25T04:04:37;3.08;;;1.63;;
82632;SDS011;72302;51.444;3.582;2024-01-25T04:07:02;8.83;;;1.93;;
82632;SDS011;72302;51.444;3.582;2024-01-25T04:09:28;9.95;;;2.10;;
82632;SDS011;72302;51.444;3.582;2024-01-25T04:11:53;22.80;;;4.70;;
82632;SDS011;72302;51.444;3.582;2024-01-25T04:14:18;20.90;;;3.80;;
82632;SDS011;72302;51.444;3.582;2024-01-25T04:16:43;22.13;;;3.03;;
82632;SDS011;72302;51.444;3.582;2024-01-25T04:19:11;12.57;;;2.75;;
82632;SDS011;72302;51.444;3.582;2024-01-25T04:21:37;16.65;;;2.88;;
82632;SDS011;72302;51.444;3.582;2024-01-25T04:24:03;13.10;;;2.03;;
82632;SDS011;72302;51.444;3.582;2024-01-25T04:26:29;13.23;;;2.42;;
82632;SDS011;72302;51.444;3.582;2024-01-25T04:28:54;13.07;;;1.63;;
82632;SDS011;72302;51.444;3.582;2024-01-25T04:31:19;23.87;;;3.50;;
82632;SDS011;72302;51.444;3.582;2024-01-25T04:33:44;17.80;;;4.10;;
82632;SDS011;72302;51.444;3.582;2024-01-25T04:36:09;11.50;;;1.90;;
82632;SDS011;72302;51.444;3.582;2024-01-25T04:38:35;11.05;;;2.45;;
82632;SDS011;72302;51.444;3.582;2024-01-25T04:41:00;3.97;;;1.00;;
82632;SDS011;72302;51.444;3.582;2024-01-25T04:43:25;13.43;;;3.22;;
82632;SDS011;72302;51.444;3.582;2024-01-25T04:45:50;9.57;;;1.93;;
82632;SDS011;72302;51.444;3.582;2024-01-25T04:48:16;9.70;;;3.10;;
82632;SDS011;72302;51.444;3.582;2024-01-25T04:50:41;12.27;;;2.80;;
82632;SDS011;72302;51.444;3.582;2024-01-25T04:53:06;14.73;;;2.70;;
82632;SDS011;72302;51.444;3.582;2024-01-25T04:55:31;13.60;;;2.17;;
82632;SDS011;72302;51.444;3.582;2024-01-25T04:57:56;6.00;;;1.57;;
82632;SDS011;72302;51.444;3.582;2024-01-25T05:00:22;6.33;;;1.30;;
82632;SDS011;72302;51.444;3.582;2024-01-25T05:02:47;9.18;;;1.40;;
82632;SDS011;72302;51.444;3.582;2024-01-25T05:05:13;4.03;;;1.42;;
82632;SDS011;72302;51.444;3.582;2024-01-25T05:07:38;3.70;;;1.40;;
82632;SDS011;72302;51.444;3.582;2024-01-25T05:10:03;17.23;;;3.22;;
82632;SDS011;72302;51.444;3.582;2024-01-25T05:12:29;6.07;;;1.75;;
82632;SDS011;72302;51.444;3.582;2024-01-25T05:14:54;5.23;;;1.00;;
82632;SDS011;72302;51.444;3.582;2024-01-25T05:17:19;2.30;;;1.00;;
82632;SDS011;72302;51.444;3.582;2024-01-25T05:19:44;8.53;;;1.50;;
82632;SDS011;72302;51.444;3.582;2024-01-25T05:22:10;4.88;;;1.42;;
82632;SDS011;72302;51.444;3.582;2024-01-25T05:24:35;8.35;;;1.75;;
82632;SDS011;72302;51.444;3.582;2024-01-25T05:27:00;7.93;;;1.97;;
82632;SDS011;72302;51.444;3.582;2024-01-25T05:29:25;9.90;;;2.87;;
82632;SDS011;72302;51.444;3.582;2024-01-25T05:31:50;9.90;;;2.60;;
82632;SDS011;72302;51.444;3.582;2024-01-25T05:34:16;21.93;;;3.20;;
82632;SDS011;72302;51.444;3.582;2024-01-25T05:36:41;6.70;;;1.43;;
82632;SDS011;72302;51.444;3.582;2024-01-25T05:39:06;7.70;;;2.25;;
82632;SDS011;72302;51.444;3.582;2024-01-25T05:41:32;4.15;;;1.48;;
82632;SDS011;72302;51.444;3.582;2024-01-25T05:43:58;13.20;;;1.95;;
82632;SDS011;72302;51.444;3.582;2024-01-25T05:46:23;7.23;;;1.93;;
82632;SDS011;72302;51.444;3.582;2024-01-25T05:48:48;12.87;;;2.77;;
82632;SDS011;72302;51.444;3.582;2024-01-25T05:51:13;14.90;;;4.33;;
82632;SDS011;72302;51.444;3.582;2024-01-25T05:53:39;11.18;;;1.80;;
82632;SDS011;72302;51.444;3.582;2024-01-25T05:56:04;15.47;;;3.73;;
82632;SDS011;72302;51.444;3.582;2024-01-25T05:58:29;15.82;;;2.80;;
82632;SDS011;72302;51.444;3.582;2024-01-25T06:00:54;11.37;;;3.07;;
82632;SDS011;72302;51.444;3.582;2024-01-25T06:03:19;17.87;;;4.03;;
82632;SDS011;72302;51.444;3.582;2024-01-25T06:05:44;11.93;;;2.30;;
82632;SDS011;72302;51.444;3.582;2024-01-25T06:08:10;16.03;;;3.07;;
82632;SDS011;72302;51.444;3.582;2024-01-25T06:10:35;16.70;;;3.83;;
82632;SDS011;72302;51.444;3.582;2024-01-25T06:13:00;14.20;;;4.13;;
82632;SDS011;72302;51.444;3.582;2024-01-25T06:15:25;16.87;;;3.93;;
82632;SDS011;72302;51.444;3.582;2024-01-25T06:17:50;12.97;;;2.53;;
82632;SDS011;72302;51.444;3.582;2024-01-25T06:20:16;17.73;;;2.87;;
82632;SDS011;72302;51.444;3.582;2024-01-25T06:22:41;15.63;;;2.83;;
82632;SDS011;72302;51.444;3.582;2024-01-25T06:25:06;9.53;;;1.50;;
82632;SDS011;72302;51.444;3.582;2024-01-25T06:27:32;18.63;;;4.25;;
82632;SDS011;72302;51.444;3.582;2024-01-25T06:29:57;18.80;;;3.97;;
82632;SDS011;72302;51.444;3.582;2024-01-25T06:32:22;18.30;;;4.22;;
82632;SDS011;72302;51.444;3.582;2024-01-25T06:34:48;23.43;;;4.33;;
82632;SDS011;72302;51.444;3.582;2024-01-25T06:37:13;18.73;;;3.50;;
82632;SDS011;72302;51.444;3.582;2024-01-25T06:39:40;25.00;;;4.35;;
82632;SDS011;72302;51.444;3.582;2024-01-25T06:42:05;12.20;;;2.25;;
82632;SDS011;72302;51.444;3.582;2024-01-25T06:44:30;7.93;;;1.17;;
82632;SDS011;72302;51.444;3.582;2024-01-25T06:46:56;8.13;;;2.00;;
82632;SDS011;72302;51.444;3.582;2024-01-25T06:49:21;3.27;;;0.97;;
82632;SDS011;72302;51.444;3.582;2024-01-25T06:51:46;12.73;;;2.40;;
82632;SDS011;72302;51.444;3.582;2024-01-25T06:54:11;7.80;;;2.43;;
82632;SDS011;72302;51.444;3.582;2024-01-25T06:56:36;13.18;;;2.92;;
82632;SDS011;72302;51.444;3.582;2024-01-25T06:59:02;10.77;;;2.58;;
82632;SDS011;72302;51.444;3.582;2024-01-25T07:01:28;11.70;;;2.53;;
82632;SDS011;72302;51.444;3.582;2024-01-25T07:03:55;7.72;;;1.90;;
82632;SDS011;72302;51.444;3.582;2024-01-25T07:06:20;8.63;;;1.73;;
82632;SDS011;72302;51.444;3.582;2024-01-25T07:08:45;14.00;;;2.90;;
82632;SDS011;72302;51.444;3.582;2024-01-25T07:11:11;12.38;;;2.47;;
82632;SDS011;72302;51.444;3.582;2024-01-25T07:13:36;10.93;;;2.72;;
82632;SDS011;72302;51.444;3.582;2024-01-25T07:16:01;5.17;;;1.67;;
82632;SDS011;72302;51.444;3.582;2024-01-25T07:18:26;11.50;;;2.45;;
82632;SDS011;72302;51.444;3.582;2024-01-25T07:20:52;15.10;;;4.33;;
82632;SDS011;72302;51.444;3.582;2024-01-25T07:23:17;16.27;;;3.20;;
82632;SDS011;72302;51.444;3.582;2024-01-25T07:25:42;11.07;;;3.63;;
82632;SDS011;72302;51.444;3.582;2024-01-25T07:28:08;12.93;;;2.90;;
82632;SDS011;72302;51.444;3.582;2024-01-25T07:30:33;14.80;;;2.63;;
82632;SDS011;72302;51.444;3.582;2024-01-25T07:32:58;4.27;;;1.80;;
82632;SDS011;72302;51.444;3.582;2024-01-25T07:35:23;6.23;;;2.03;;
82632;SDS011;72302;51.444;3.582;2024-01-25T07:37:48;9.23;;;2.10;;
82632;SDS011;72302;51.444;3.582;2024-01-25T07:40:14;8.63;;;1.83;;
82632;SDS011;72302;51.444;3.582;2024-01-25T07:42:39;7.07;;;1.27;;
82632;SDS011;72302;51.444;3.582;2024-01-25T07:45:04;11.27;;;2.78;;
82632;SDS011;72302;51.444;3.582;2024-01-25T07:47:30;11.88;;;1.88;;
82632;SDS011;72302;51.444;3.582;2024-01-25T07:49:55;9.57;;;2.23;;
82632;SDS011;72302;51.444;3.582;2024-01-25T07:52:20;6.70;;;1.83;;
82632;SDS011;72302;51.444;3.582;2024-01-25T07:54:45;12.25;;;2.40;;
82632;SDS011;72302;51.444;3.582;2024-01-25T07:57:10;6.73;;;2.10;;
82632;SDS011;72302;51.444;3.582;2024-01-25T07:59:36;14.30;;;3.23;;
82632;SDS011;72302;51.444;3.582;2024-01-25T08:02:01;14.95;;;3.03;;
82632;SDS011;72302;51.444;3.582;2024-01-25T08:04:26;11.88;;;2.70;;
82632;SDS011;72302;51.444;3.582;2024-01-25T08:06:52;12.53;;;3.47;;
82632;SDS011;72302;51.444;3.582;2024-01-25T08:09:17;14.93;;;2.97;;
82632;SDS011;72302;51.444;3.582;2024-01-25T08:11:43;8.57;;;2.00;;
82632;SDS011;72302;51.444;3.582;2024-01-25T08:14:08;7.53;;;2.37;;
82632;SDS011;72302;51.444;3.582;2024-01-25T08:16:33;12.40;;;3.10;;
82632;SDS011;72302;51.444;3.582;2024-01-25T08:19:00;9.20;;;2.63;;
82632;SDS011;72302;51.444;3.582;2024-01-25T08:21:25;15.50;;;2.37;;
82632;SDS011;72302;51.444;3.582;2024-01-25T08:23:50;10.83;;;3.40;;
82632;SDS011;72302;51.444;3.582;2024-01-25T08:26:15;13.40;;;3.17;;
82632;SDS011;72302;51.444;3.582;2024-01-25T08:28:41;6.25;;;2.80;;
82632;SDS011;72302;51.444;3.582;2024-01-25T08:31:06;11.20;;;3.25;;
82632;SDS011;72302;51.444;3.582;2024-01-25T08:33:32;8.70;;;1.98;;
82632;SDS011;72302;51.444;3.582;2024-01-25T08:35:57;14.18;;;3.25;;
82632;SDS011;72302;51.444;3.582;2024-01-25T08:38:22;13.60;;;3.67;;
82632;SDS011;72302;51.444;3.582;2024-01-25T08:40:47;18.10;;;4.50;;
82632;SDS011;72302;51.444;3.582;2024-01-25T08:43:12;4.20;;;1.17;;
82632;SDS011;72302;51.444;3.582;2024-01-25T08:45:38;14.33;;;3.73;;
82632;SDS011;72302;51.444;3.582;2024-01-25T08:48:03;8.65;;;2.53;;
82632;SDS011;72302;51.444;3.582;2024-01-25T08:50:28;9.85;;;1.95;;
82632;SDS011;72302;51.444;3.582;2024-01-25T08:52:55;14.52;;;3.45;;
82632;SDS011;72302;51.444;3.582;2024-01-25T08:55:20;18.05;;;4.00;;
82632;SDS011;72302;51.444;3.582;2024-01-25T08:57:45;9.93;;;3.38;;
82632;SDS011;72302;51.444;3.582;2024-01-25T09:00:11;20.20;;;4.25;;
82632;SDS011;72302;51.444;3.582;2024-01-25T09:02:37;18.88;;;4.65;;
82632;SDS011;72302;51.444;3.582;2024-01-25T09:05:02;16.33;;;4.78;;
82632;SDS011;72302;51.444;3.582;2024-01-25T09:07:28;15.45;;;4.55;;
82632;SDS011;72302;51.444;3.582;2024-01-25T09:09:53;19.75;;;4.85;;
82632;SDS011;72302;51.444;3.582;2024-01-25T09:12:19;18.43;;;4.97;;
82632;SDS011;72302;51.444;3.582;2024-01-25T09:14:44;20.98;;;5.68;;
82632;SDS011;72302;51.444;3.582;2024-01-25T09:17:09;15.87;;;5.57;;
82632;SDS011;72302;51.444;3.582;2024-01-25T09:19:35;11.80;;;3.72;;
82632;SDS011;72302;51.444;3.582;2024-01-25T09:22:02;9.63;;;2.47;;
82632;SDS011;72302;51.444;3.582;2024-01-25T09:24:29;17.70;;;3.65;;
82632;SDS011;72302;51.444;3.582;2024-01-25T09:26:54;9.50;;;1.88;;
82632;SDS011;72302;51.444;3.582;2024-01-25T09:29:20;8.65;;;2.22;;
82632;SDS011;72302;51.444;3.582;2024-01-25T09:31:45;10.50;;;3.60;;
82632;SDS011;72302;51.444;3.582;2024-01-25T09:34:11;12.80;;;4.73;;
82632;SDS011;72302;51.444;3.582;2024-01-25T09:36:36;9.03;;;4.07;;
82632;SDS011;72302;51.444;3.582;2024-01-25T09:39:01;7.20;;;3.67;;
82632;SDS011;72302;51.444;3.582;2024-01-25T09:41:26;8.18;;;3.60;;
82632;SDS011;72302;51.444;3.582;2024-01-25T09:43:52;9.27;;;3.47;;
82632;SDS011;72302;51.444;3.582;2024-01-25T09:46:17;7.07;;;3.13;;
82632;SDS011;72302;51.444;3.582;2024-01-25T09:48:43;6.53;;;1.75;;
82632;SDS011;72302;51.444;3.582;2024-01-25T09:51:11;5.53;;;2.35;;
82632;SDS011;72302;51.444;3.582;2024-01-25T09:53:36;10.82;;;3.92;;
82632;SDS011;72302;51.444;3.582;2024-01-25T09:58:29;9.97;;;3.50;;
82632;SDS011;72302;51.444;3.582;2024-01-25T10:00:57;7.75;;;2.78;;
82632;SDS011;72302;51.444;3.582;2024-01-25T10:03:22;10.00;;;3.77;;
82632;SDS011;72302;51.444;3.582;2024-01-25T10:05:48;6.13;;;2.15;;
82632;SDS011;72302;51.444;3.582;2024-01-25T10:08:13;2.80;;;1.38;;
82632;SDS011;72302;51.444;3.582;2024-01-25T10:10:39;4.95;;;2.05;;
82632;SDS011;72302;51.444;3.582;2024-01-25T10:13:05;8.52;;;3.83;;
82632;SDS011;72302;51.444;3.582;2024-01-25T10:15:30;9.15;;;3.78;;
82632;SDS011;72302;51.444;3.582;2024-01-25T10:17:55;7.32;;;2.63;;
82632;SDS011;72302;51.444;3.582;2024-01-25T10:20:20;8.50;;;3.38;;
82632;SDS011;72302;51.444;3.582;2024-01-25T10:22:49;10.35;;;4.68;;
82632;SDS011;72302;51.444;3.582;2024-01-25T10:25:14;5.43;;;3.27;;
82632;SDS011;72302;51.444;3.582;2024-01-25T10:27:40;8.03;;;3.93;;
82632;SDS011;72302;51.444;3.582;2024-01-25T10:30:06;3.90;;;1.70;;
82632;SDS011;72302;51.444;3.582;2024-01-25T10:32:31;6.47;;;1.45;;
82632;SDS011;72302;51.444;3.582;2024-01-25T10:34:57;6.07;;;2.45;;
82632;SDS011;72302;51.444;3.582;2024-01-25T10:37:23;11.35;;;4.43;;
82632;SDS011;72302;51.444;3.582;2024-01-25T10:39:49;5.22;;;2.70;;
82632;SDS011;72302;51.444;3.582;2024-01-25T10:42:15;3.92;;;1.77;;
82632;SDS011;72302;51.444;3.582;2024-01-25T10:44:40;6.82;;;2.92;;
82632;SDS011;72302;51.444;3.582;2024-01-25T10:47:06;1.65;;;0.90;;
82632;SDS011;72302;51.444;3.582;2024-01-25T10:49:32;11.95;;;4.32;;
82632;SDS011;72302;51.444;3.582;2024-01-25T10:51:57;14.85;;;4.35;;
82632;SDS011;72302;51.444;3.582;2024-01-25T10:54:23;5.47;;;1.92;;
82632;SDS011;72302;51.444;3.582;2024-01-25T10:56:48;8.38;;;3.35;;
82632;SDS011;72302;51.444;3.582;2024-01-25T10:59:13;8.48;;;4.05;;
82632;SDS011;72302;51.444;3.582;2024-01-25T11:01:44;9.35;;;4.10;;
82632;SDS011;72302;51.444;3.582;2024-01-25T11:04:13;12.18;;;4.00;;
82632;SDS011;72302;51.444;3.582;2024-01-25T11:06:38;3.67;;;1.13;;
82632;SDS011;72302;51.444;3.582;2024-01-25T11:09:04;2.23;;;1.13;;
82632;SDS011;72302;51.444;3.582;2024-01-25T11:11:30;0.73;;;0.43;;
82632;SDS011;72302;51.444;3.582;2024-01-25T11:13:56;3.17;;;0.95;;
82632;SDS011;72302;51.444;3.582;2024-01-25T11:16:28;11.52;;;4.00;;
82632;SDS011;72302;51.444;3.582;2024-01-25T11:18:56;10.95;;;4.40;;
82632;SDS011;72302;51.444;3.582;2024-01-25T11:24:12;8.20;;;3.90;;
82632;SDS011;72302;51.444;3.582;2024-01-25T11:26:38;8.88;;;3.65;;
82632;SDS011;72302;51.444;3.582;2024-01-25T11:29:04;8.68;;;3.15;;
82632;SDS011;72302;51.444;3.582;2024-01-25T11:31:29;8.73;;;2.90;;
82632;SDS011;72302;51.444;3.582;2024-01-25T11:33:57;3.45;;;1.20;;
82632;SDS011;72302;51.444;3.582;2024-01-25T11:36:23;11.48;;;2.95;;
82632;SDS011;72302;51.444;3.582;2024-01-25T11:38:49;5.40;;;1.92;;
82632;SDS011;72302;51.444;3.582;2024-01-25T11:41:14;5.50;;;2.13;;
82632;SDS011;72302;51.444;3.582;2024-01-25T11:43:40;8.50;;;2.50;;
82632;SDS011;72302;51.444;3.582;2024-01-25T11:46:05;7.38;;;3.55;;
82632;SDS011;72302;51.444;3.582;2024-01-25T11:48:30;7.80;;;3.30;;
82632;SDS011;72302;51.444;3.582;2024-01-25T11:50:55;10.07;;;3.43;;
82632;SDS011;72302;51.444;3.582;2024-01-25T11:53:21;2.63;;;0.68;;
82632;SDS011;72302;51.444;3.582;2024-01-25T11:55:46;9.20;;;3.17;;
82632;SDS011;72302;51.444;3.582;2024-01-25T11:58:11;4.43;;;2.07;;
82632;SDS011;72302;51.444;3.582;2024-01-25T12:00:36;4.80;;;2.23;;
82632;SDS011;72302;51.444;3.582;2024-01-25T12:03:01;10.82;;;3.85;;
82632;SDS011;72302;51.444;3.582;2024-01-25T12:05:27;9.77;;;2.53;;
82632;SDS011;72302;51.444;3.582;2024-01-25T12:07:52;5.10;;;1.87;;
82632;SDS011;72302;51.444;3.582;2024-01-25T12:10:17;9.70;;;2.97;;
82632;SDS011;72302;51.444;3.582;2024-01-25T12:12:43;6.43;;;2.25;;
82632;SDS011;72302;51.444;3.582;2024-01-25T12:15:08;6.47;;;2.30;;
82632;SDS011;72302;51.444;3.582;2024-01-25T12:17:33;8.73;;;4.13;;
82632;SDS011;72302;51.444;3.582;2024-01-25T12:20:01;6.55;;;2.22;;
82632;SDS011;72302;51.444;3.582;2024-01-25T12:22:27;6.38;;;2.50;;
82632;SDS011;72302;51.444;3.582;2024-01-25T12:24:58;14.15;;;4.28;;
82632;SDS011;72302;51.444;3.582;2024-01-25T12:27:24;3.00;;;1.33;;
82632;SDS011;72302;51.444;3.582;2024-01-25T12:29:53;8.57;;;3.13;;
82632;SDS011;72302;51.444;3.582;2024-01-25T12:32:19;3.22;;;1.85;;
82632;SDS011;72302;51.444;3.582;2024-01-25T12:34:59;4.43;;;2.15;;
82632;SDS011;72302;51.444;3.582;2024-01-25T12:37:28;2.88;;;1.05;;
82632;SDS011;72302;51.444;3.582;2024-01-25T12:39:54;3.53;;;2.00;;
82632;SDS011;72302;51.444;3.582;2024-01-25T12:42:19;3.55;;;1.85;;
82632;SDS011;72302;51.444;3.582;2024-01-25T12:44:45;5.53;;;2.17;;
82632;SDS011;72302;51.444;3.582;2024-01-25T12:47:10;4.63;;;1.38;;
82632;SDS011;72302;51.444;3.582;2024-01-25T12:49:37;8.80;;;3.20;;
82632;SDS011;72302;51.444;3.582;2024-01-25T12:52:02;4.20;;;2.27;;
82632;SDS011;72302;51.444;3.582;2024-01-25T12:54:28;3.42;;;1.40;;
82632;SDS011;72302;51.444;3.582;2024-01-25T12:56:53;5.32;;;2.00;;
82632;SDS011;72302;51.444;3.582;2024-01-25T12:59:19;8.37;;;1.97;;
82632;SDS011;72302;51.444;3.582;2024-01-25T13:01:44;5.80;;;2.35;;
82632;SDS011;72302;51.444;3.582;2024-01-25T13:04:09;4.50;;;1.73;;
82632;SDS011;72302;51.444;3.582;2024-01-25T13:06:34;4.10;;;1.90;;
82632;SDS011;72302;51.444;3.582;2024-01-25T13:08:59;4.97;;;1.80;;
82632;SDS011;72302;51.444;3.582;2024-01-25T13:11:25;4.17;;;1.83;;
82632;SDS011;72302;51.444;3.582;2024-01-25T13:13:50;5.07;;;2.90;;
82632;SDS011;72302;51.444;3.582;2024-01-25T13:16:16;6.43;;;2.90;;
82632;SDS011;72302;51.444;3.582;2024-01-25T13:18:41;7.28;;;3.70;;
82632;SDS011;72302;51.444;3.582;2024-01-25T13:21:06;4.32;;;1.42;;
82632;SDS011;72302;51.444;3.582;2024-01-25T13:23:31;5.77;;;2.40;;
82632;SDS011;72302;51.444;3.582;2024-01-25T13:25:57;6.40;;;3.50;;
82632;SDS011;72302;51.444;3.582;2024-01-25T13:28:22;8.13;;;4.97;;
82632;SDS011;72302;51.444;3.582;2024-01-25T13:30:47;8.53;;;4.33;;
82632;SDS011;72302;51.444;3.582;2024-01-25T13:33:12;3.57;;;2.20;;
82632;SDS011;72302;51.444;3.582;2024-01-25T13:35:37;6.50;;;3.70;;
82632;SDS011;72302;51.444;3.582;2024-01-25T13:38:02;6.67;;;4.00;;
82632;SDS011;72302;51.444;3.582;2024-01-25T13:40:28;5.30;;;2.30;;
82632;SDS011;72302;51.444;3.582;2024-01-25T13:42:53;10.40;;;5.30;;
82632;SDS011;72302;51.444;3.582;2024-01-25T13:45:19;8.27;;;4.22;;
82632;SDS011;72302;51.444;3.582;2024-01-25T13:47:45;7.13;;;3.92;;
82632;SDS011;72302;51.444;3.582;2024-01-25T13:50:10;8.03;;;4.70;;
82632;SDS011;72302;51.444;3.582;2024-01-25T13:52:36;10.75;;;5.85;;
82632;SDS011;72302;51.444;3.582;2024-01-25T13:55:01;6.23;;;3.37;;
82632;SDS011;72302;51.444;3.582;2024-01-25T13:57:26;9.93;;;6.37;;
82632;SDS011;72302;51.444;3.582;2024-01-25T13:59:51;10.43;;;6.33;;
82632;SDS011;72302;51.444;3.582;2024-01-25T14:02:16;9.90;;;6.55;;
82632;SDS011;72302;51.444;3.582;2024-01-25T14:04:42;7.37;;;4.63;;
82632;SDS011;72302;51.444;3.582;2024-01-25T14:07:08;11.18;;;4.38;;
82632;SDS011;72302;51.444;3.582;2024-01-25T14:09:33;12.05;;;5.55;;
82632;SDS011;72302;51.444;3.582;2024-01-25T14:11:58;12.05;;;7.32;;
82632;SDS011;72302;51.444;3.582;2024-01-25T14:14:24;9.43;;;4.88;;
82632;SDS011;72302;51.444;3.582;2024-01-25T14:16:49;12.73;;;4.97;;
82632;SDS011;72302;51.444;3.582;2024-01-25T14:19:14;9.33;;;5.20;;
82632;SDS011;72302;51.444;3.582;2024-01-25T14:21:39;6.47;;;4.63;;
82632;SDS011;72302;51.444;3.582;2024-01-25T14:24:05;5.40;;;2.38;;
82632;SDS011;72302;51.444;3.582;2024-01-25T14:26:30;12.10;;;5.47;;
82632;SDS011;72302;51.444;3.582;2024-01-25T14:28:56;6.07;;;2.92;;
82632;SDS011;72302;51.444;3.582;2024-01-25T14:31:21;12.13;;;4.90;;
82632;SDS011;72302;51.444;3.582;2024-01-25T14:33:46;7.27;;;3.23;;
82632;SDS011;72302;51.444;3.582;2024-01-25T14:36:11;12.70;;;6.37;;